Time;durP1;ratioP1;P1;durP2;ratioP2;P2;SDS_P1;SDS_P2;PMS_P1;PMS_P2;Temp;Humidity;BMP_temperature;BMP_pressure;BME280_temperature;BME280_humidity;BME280_pressure;Samples;Min_cycle;Max_cycle;Signal;HPM_P1;HPM_P2
2022/01/17 00:01:30;;;;;;;35.85;20.80;;;-3.00;99.90;;;;;;5016778;28;20026;-81
2022/01/17 00:03:56;;;;;;;43.22;22.83;;;-3.00;99.90;;;;;;5015293;28;20029;-84
2022/01/17 00:06:22;;;;;;;35.67;21.25;;;-3.10;99.90;;;;;;5014873;28;20424;-81
2022/01/17 00:08:49;;;;;;;40.60;21.67;;;-3.10;99.90;;;;;;4998999;28;20068;-83
2022/01/17 00:11:16;;;;;;;37.30;21.55;;;-3.00;99.90;;;;;;5014977;28;20058;-84
2022/01/17 00:13:43;;;;;;;42.15;21.75;;;-3.10;99.90;;;;;;5015158;28;20095;-81
2022/01/17 00:16:28;;;;;;;56.25;24.15;;;-3.10;99.90;;;;;;5014917;28;20030;-84
2022/01/17 00:21:41;;;;;;;41.85;21.73;;;-3.10;99.90;;;;;;5016695;28;20057;-82
2022/01/17 00:24:08;;;;;;;49.42;24.95;;;-3.10;99.90;;;;;;4999130;28;20359;-81
2022/01/17 00:26:34;;;;;;;40.78;21.60;;;-3.10;99.90;;;;;;4996597;28;20026;-79
2022/01/17 00:29:00;;;;;;;40.78;20.92;;;-3.20;99.90;;;;;;4996238;28;20034;-79
2022/01/17 00:31:25;;;;;;;37.88;21.95;;;-3.20;99.90;;;;;;4995296;28;20045;-79
2022/01/17 00:33:51;;;;;;;40.63;20.75;;;-3.20;99.90;;;;;;4996535;28;20098;-79
2022/01/17 00:36:17;;;;;;;46.42;22.00;;;-3.20;99.90;;;;;;4996384;28;20037;-79
2022/01/17 00:38:42;;;;;;;36.33;21.25;;;-3.20;99.90;;;;;;5013542;28;20044;-82
2022/01/17 00:41:08;;;;;;;38.10;20.70;;;-3.30;99.90;;;;;;4995954;28;20034;-80
2022/01/17 00:43:35;;;;;;;39.15;22.23;;;-3.30;99.90;;;;;;4996069;28;20075;-79
2022/01/17 00:46:01;;;;;;;37.03;21.05;;;-3.30;99.90;;;;;;5014261;28;20021;-78
2022/01/17 00:48:26;;;;;;;39.40;22.45;;;-3.30;99.90;;;;;;5014191;28;20033;-78
2022/01/17 00:50:52;;;;;;;42.67;23.05;;;-3.30;99.90;;;;;;4996652;28;20022;-79
2022/01/17 00:53:18;;;;;;;42.58;23.58;;;-3.30;99.90;;;;;;4997051;28;20116;-79
2022/01/17 00:55:43;;;;;;;37.47;20.95;;;-3.30;99.90;;;;;;5013634;28;20493;-78
2022/01/17 00:58:09;;;;;;;36.97;22.30;;;-3.40;99.90;;;;;;4995898;28;20036;-78
2022/01/17 01:00:36;;;;;;;41.15;22.05;;;-3.40;99.90;;;;;;5016192;28;20041;-83
2022/01/17 01:03:02;;;;;;;40.97;20.73;;;-3.40;99.90;;;;;;5019947;28;20033;-83
2022/01/17 01:05:28;;;;;;;37.97;20.75;;;-3.40;99.90;;;;;;5019133;28;20025;-84
2022/01/17 01:07:54;;;;;;;41.10;24.23;;;-3.40;99.90;;;;;;5002538;28;20025;-81
2022/01/17 01:10:20;;;;;;;38.78;20.58;;;-3.30;99.90;;;;;;4998062;28;20076;-80
2022/01/17 01:12:49;;;;;;;37.55;21.02;;;-3.30;99.90;;;;;;4997355;28;20048;-80
2022/01/17 01:15:22;;;;;;;36.05;20.92;;;-3.30;99.90;;;;;;5013681;28;20026;-81
2022/01/17 01:28:30;;;;;;;37.90;22.92;;;-3.10;99.90;;;;;;5014060;28;20033;-80
2022/01/17 01:30:57;;;;;;;42.50;22.92;;;-3.10;99.90;;;;;;4997884;28;20026;-82
2022/01/17 01:33:28;;;;;;;44.35;24.73;;;-3.10;99.90;;;;;;4997779;28;20036;-80
2022/01/17 01:36:05;;;;;;;45.63;23.15;;;-3.00;99.90;;;;;;4996654;28;20117;-79
2022/01/17 01:38:31;;;;;;;33.85;21.48;;;-3.00;99.90;;;;;;4996593;28;20025;-80
2022/01/17 01:40:58;;;;;;;41.03;21.20;;;-2.90;99.90;;;;;;4996395;28;20103;-81
2022/01/17 01:43:23;;;;;;;36.78;21.25;;;-3.00;99.90;;;;;;5016088;28;20021;-79
2022/01/17 01:45:56;;;;;;;40.55;22.65;;;-3.00;99.90;;;;;;5002826;28;20037;-80
2022/01/17 01:48:22;;;;;;;37.33;21.98;;;-3.00;99.90;;;;;;5020481;28;20030;-80
2022/01/17 01:50:48;;;;;;;38.83;20.52;;;-3.00;99.90;;;;;;5019243;28;20026;-80
2022/01/17 01:53:14;;;;;;;41.35;22.52;;;-3.00;99.90;;;;;;5003128;28;20032;-79
2022/01/17 01:55:40;;;;;;;33.78;20.77;;;-3.00;99.90;;;;;;5002733;28;20030;-82
2022/01/17 01:58:05;;;;;;;37.72;21.58;;;-2.90;99.90;;;;;;5020448;28;20463;-80
2022/01/17 02:00:31;;;;;;;39.85;22.88;;;-2.90;99.90;;;;;;5002968;28;20461;-80
2022/01/17 02:02:57;;;;;;;40.50;22.60;;;-2.90;99.90;;;;;;5003091;28;20126;-81
2022/01/17 02:05:23;;;;;;;37.58;21.63;;;-2.90;99.90;;;;;;5020186;28;20037;-80
2022/01/17 02:07:49;;;;;;;40.67;22.15;;;-2.90;99.90;;;;;;5002710;28;20026;-79
2022/01/17 02:10:15;;;;;;;38.72;21.77;;;-2.80;99.90;;;;;;5020242;28;20026;-80
2022/01/17 02:12:41;;;;;;;37.10;22.02;;;-2.80;99.90;;;;;;5020472;28;20064;-79
2022/01/17 02:15:12;;;;;;;37.38;22.27;;;-2.80;99.90;;;;;;5003029;28;20076;-80
2022/01/17 02:17:53;;;;;;;42.50;22.92;;;-2.70;99.90;;;;;;5018982;28;20088;-80
2022/01/17 02:20:21;;;;;;;41.30;23.23;;;-2.70;99.90;;;;;;5018844;28;20045;-80
2022/01/17 02:22:47;;;;;;;37.30;21.33;;;-2.70;99.90;;;;;;5019018;28;20095;-80
2022/01/17 02:25:13;;;;;;;39.50;21.90;;;-2.70;99.90;;;;;;5018853;28;20113;-80
2022/01/17 02:27:39;;;;;;;36.85;22.08;;;-2.70;99.90;;;;;;5002381;28;20150;-80
2022/01/17 02:30:05;;;;;;;39.55;21.27;;;-2.70;99.90;;;;;;5002785;28;20026;-83
2022/01/17 02:32:31;;;;;;;37.45;22.38;;;-2.70;99.90;;;;;;5019168;28;20094;-80
2022/01/17 02:35:17;;;;;;;40.70;22.88;;;-2.60;99.90;;;;;;5002584;28;20029;-79
2022/01/17 02:37:44;;;;;;;39.78;23.33;;;-2.60;99.90;;;;;;5018722;28;20169;-79
2022/01/17 02:40:10;;;;;;;39.20;24.67;;;-2.60;99.90;;;;;;5018465;28;20054;-79
2022/01/17 02:42:37;;;;;;;41.10;24.55;;;-2.60;99.90;;;;;;5019121;28;20021;-80
2022/01/17 02:45:30;;;;;;;41.70;23.58;;;-2.50;99.90;;;;;;5002416;28;20385;-80
2022/01/17 02:47:58;;;;;;;37.40;22.00;;;-2.60;99.90;;;;;;5018745;28;20060;-83
2022/01/17 02:50:23;;;;;;;42.67;23.45;;;-2.60;99.90;;;;;;5018244;28;20029;-80
2022/01/17 02:52:49;;;;;;;44.13;23.05;;;-2.60;99.90;;;;;;5002369;28;20030;-80
2022/01/17 02:55:15;;;;;;;37.13;20.95;;;-2.60;99.90;;;;;;4999008;28;20034;-80
2022/01/17 02:57:40;;;;;;;37.63;22.92;;;-2.60;99.90;;;;;;5016696;28;20080;-82
2022/01/17 03:00:09;;;;;;;40.45;21.77;;;-2.60;99.90;;;;;;4998944;28;20038;-80
2022/01/17 03:02:35;;;;;;;38.33;21.63;;;-2.50;99.90;;;;;;4999090;28;20022;-80
2022/01/17 03:05:01;;;;;;;35.28;21.75;;;-2.50;99.90;;;;;;4999261;28;20083;-81
2022/01/17 03:07:26;;;;;;;41.05;22.00;;;-2.50;99.90;;;;;;4999022;28;20077;-80
2022/01/17 03:10:03;;;;;;;44.70;21.27;;;-2.50;99.90;;;;;;4999151;28;20026;-80
2022/01/17 03:12:30;;;;;;;40.85;21.98;;;-2.50;99.90;;;;;;4998681;28;20022;-79
2022/01/17 03:14:56;;;;;;;38.03;21.55;;;-2.40;99.90;;;;;;5016496;28;20033;-84
2022/01/17 03:17:22;;;;;;;38.33;22.50;;;-2.40;99.90;;;;;;5016159;28;20664;-81
2022/01/17 03:19:48;;;;;;;37.88;21.98;;;-2.50;99.90;;;;;;4998789;28;20113;-80
2022/01/17 03:22:13;;;;;;;41.83;23.15;;;-2.50;99.90;;;;;;4998798;28;20026;-80
2022/01/17 03:24:40;;;;;;;36.33;21.02;;;-2.40;99.90;;;;;;5016247;28;20474;-80
2022/01/17 03:27:05;;;;;;;38.50;22.15;;;-2.40;99.90;;;;;;4999074;28;20036;-79
2022/01/17 03:29:31;;;;;;;44.72;23.42;;;-2.40;99.90;;;;;;4998803;28;20469;-81
2022/01/17 03:31:57;;;;;;;42.10;22.70;;;-2.40;99.90;;;;;;4998457;28;20037;-80
2022/01/17 03:34:22;;;;;;;41.42;23.10;;;-2.40;99.90;;;;;;4998777;28;20393;-80
2022/01/17 03:36:48;;;;;;;39.33;23.63;;;-2.40;99.90;;;;;;4998549;28;20030;-80
2022/01/17 03:39:14;;;;;;;36.50;21.05;;;-2.30;99.90;;;;;;4998184;28;20104;-81
2022/01/17 03:41:40;;;;;;;43.40;23.70;;;-2.30;99.90;;;;;;5016042;28;20057;-80
2022/01/17 03:44:07;;;;;;;38.20;22.33;;;-2.30;99.90;;;;;;4998680;28;20034;-81
2022/01/17 03:46:33;;;;;;;35.50;20.17;;;-2.30;99.90;;;;;;5014527;28;20018;-80
2022/01/17 03:48:59;;;;;;;40.15;22.88;;;-2.30;99.90;;;;;;5014915;28;20032;-80
2022/01/17 03:51:24;;;;;;;37.47;21.63;;;-2.30;99.90;;;;;;5015850;28;20029;-80
2022/01/17 03:53:50;;;;;;;39.47;22.30;;;-2.30;99.90;;;;;;4998317;28;20057;-80
2022/01/17 03:56:18;;;;;;;35.55;20.55;;;-2.30;99.90;;;;;;4997850;28;20025;-79
2022/01/17 03:58:45;;;;;;;38.25;22.17;;;-2.30;99.90;;;;;;4997924;28;20045;-80
2022/01/17 04:01:11;;;;;;;41.25;23.35;;;-2.20;99.90;;;;;;5014218;28;20056;-80
2022/01/17 04:03:38;;;;;;;34.58;21.20;;;-2.30;99.90;;;;;;5014300;28;20473;-80
2022/01/17 04:06:04;;;;;;;39.47;20.25;;;-2.30;99.90;;;;;;5015454;28;20025;-80
2022/01/17 04:08:30;;;;;;;37.58;20.85;;;-2.20;99.90;;;;;;4997654;28;20056;-80
2022/01/17 04:10:55;;;;;;;37.95;22.55;;;-2.20;99.90;;;;;;4997687;28;20033;-80
2022/01/17 04:13:22;;;;;;;35.60;19.65;;;-2.30;99.90;;;;;;4997757;28;20111;-80
2022/01/17 04:15:48;;;;;;;37.80;22.02;;;-2.30;99.90;;;;;;5015036;28;20022;-79
2022/01/17 04:18:15;;;;;;;40.40;20.58;;;-2.30;99.90;;;;;;4997176;28;20037;-80
2022/01/17 04:20:42;;;;;;;36.03;20.95;;;-2.40;99.90;;;;;;5015151;28;20026;-80
2022/01/17 04:23:10;;;;;;;34.90;21.42;;;-2.40;99.90;;;;;;4997901;28;20045;-80
2022/01/17 04:25:38;;;;;;;37.20;21.50;;;-2.50;99.90;;;;;;5015243;28;20025;-79
2022/01/17 04:28:06;;;;;;;34.58;19.27;;;-2.40;99.90;;;;;;5013841;28;20088;-80
2022/01/17 04:30:33;;;;;;;36.10;21.55;;;-2.50;99.90;;;;;;5013743;28;20120;-81
2022/01/17 04:32:59;;;;;;;39.67;20.73;;;-2.50;99.90;;;;;;4997225;28;20038;-80
2022/01/17 04:35:26;;;;;;;40.08;22.20;;;-2.50;99.90;;;;;;4997330;28;20018;-80
2022/01/17 04:37:59;;;;;;;34.63;20.23;;;-2.50;99.90;;;;;;5013620;28;20022;-80
2022/01/17 04:40:26;;;;;;;42.42;21.27;;;-2.60;99.90;;;;;;5010069;28;20108;-81
2022/01/17 04:42:55;;;;;;;37.05;21.70;;;-2.60;99.90;;;;;;5010023;28;20390;-80
2022/01/17 04:45:21;;;;;;;41.50;22.50;;;-2.60;99.90;;;;;;5010108;28;20085;-80
2022/01/17 04:47:50;;;;;;;34.15;19.83;;;-2.60;99.90;;;;;;5009768;28;20386;-79
2022/01/17 04:50:21;;;;;;;32.88;20.42;;;-2.70;99.90;;;;;;5009669;28;20034;-78
2022/01/17 04:52:47;;;;;;;37.28;21.30;;;-2.80;99.90;;;;;;5009757;28;20030;-79
2022/01/17 04:55:14;;;;;;;35.97;21.00;;;-2.80;99.90;;;;;;5009258;28;20023;-79
2022/01/17 04:57:42;;;;;;;38.95;21.42;;;-2.80;99.90;;;;;;5010537;28;20043;-80
2022/01/17 05:00:10;;;;;;;37.78;19.88;;;-2.80;99.90;;;;;;5010417;28;20042;-79
2022/01/17 05:02:36;;;;;;;49.85;21.42;;;-2.80;99.90;;;;;;4994399;28;20022;-79
2022/01/17 05:05:04;;;;;;;37.35;21.85;;;-2.80;99.90;;;;;;5010009;28;20057;-79
2022/01/17 05:07:34;;;;;;;31.63;20.25;;;-2.80;99.90;;;;;;5009532;28;20019;-79
2022/01/17 05:10:01;;;;;;;44.85;26.77;;;-2.30;99.90;;;;;;5010235;28;20018;-80
2022/01/17 05:12:27;;;;;;;45.63;26.63;;;-2.30;99.90;;;;;;4995744;28;20093;-78
2022/01/17 05:14:53;;;;;;;43.53;24.08;;;-2.40;99.90;;;;;;5009156;28;20475;-79
2022/01/17 05:17:55;;;;;;;41.42;24.50;;;-2.50;99.90;;;;;;5008805;28;20105;-78
2022/01/17 05:20:07;;;;;;;43.33;24.65;;;-2.70;99.90;;;;;;4993269;28;20050;-78
2022/01/17 05:22:34;;;;;;;44.42;24.05;;;-2.80;99.90;;;;;;5008890;28;20022;-79
2022/01/17 05:25:05;;;;;;;40.85;23.02;;;-2.90;99.90;;;;;;5008985;28;20382;-79
2022/01/17 05:27:31;;;;;;;36.80;22.63;;;-2.90;99.90;;;;;;5008740;28;20026;-78
2022/01/17 05:29:57;;;;;;;48.05;22.85;;;-3.00;99.90;;;;;;5009083;28;20044;-79
2022/01/17 05:32:22;;;;;;;35.50;20.10;;;-3.10;99.90;;;;;;5008791;28;20134;-81
2022/01/17 05:34:49;;;;;;;41.50;23.20;;;-3.10;99.90;;;;;;5008569;28;20023;-79
2022/01/17 05:37:15;;;;;;;35.90;21.73;;;-3.20;99.90;;;;;;5009566;28;20092;-79
2022/01/17 05:39:42;;;;;;;40.47;22.00;;;-3.30;99.90;;;;;;5008517;28;20511;-80
2022/01/17 05:42:09;;;;;;;33.30;19.52;;;-3.30;99.90;;;;;;5008788;28;20030;-78
2022/01/17 05:44:35;;;;;;;39.20;22.33;;;-3.30;99.90;;;;;;4993921;28;20029;-78
2022/01/17 05:47:01;;;;;;;44.25;23.83;;;-3.30;99.90;;;;;;4992216;28;20030;-79
2022/01/17 05:49:27;;;;;;;40.63;22.30;;;-3.30;99.90;;;;;;5008790;28;20438;-79
2022/01/17 05:51:52;;;;;;;42.22;21.65;;;-3.30;99.90;;;;;;5008936;28;20054;-78
2022/01/17 05:54:18;;;;;;;49.10;25.85;;;-3.40;99.90;;;;;;4993620;28;20023;-78
2022/01/17 05:56:44;;;;;;;50.40;27.92;;;-3.40;99.90;;;;;;5008740;28;20046;-78
2022/01/17 05:59:10;;;;;;;43.08;24.25;;;-3.30;99.90;;;;;;5008183;28;20038;-78
2022/01/17 06:01:39;;;;;;;84.95;39.58;;;-3.30;99.90;;;;;;5008567;28;20014;-79
2022/01/17 06:04:05;;;;;;;120.05;52.85;;;-3.40;99.90;;;;;;5008186;28;20399;-78
2022/01/17 06:06:31;;;;;;;77.78;39.40;;;-3.30;99.90;;;;;;4993394;28;20030;-79
2022/01/17 06:08:57;;;;;;;51.65;30.65;;;-3.30;99.90;;;;;;5008287;28;20367;-78
2022/01/17 06:11:22;;;;;;;67.90;33.35;;;-3.30;99.90;;;;;;5008440;28;20038;-79
2022/01/17 06:13:48;;;;;;;48.83;26.02;;;-3.30;99.90;;;;;;4992984;28;20054;-79
2022/01/17 06:16:13;;;;;;;49.78;28.17;;;-3.30;99.90;;;;;;5008073;28;20466;-79
2022/01/17 06:18:39;;;;;;;50.83;29.83;;;-3.30;99.90;;;;;;5007415;28;20035;-80
2022/01/17 06:21:05;;;;;;;48.50;25.75;;;-3.30;99.90;;;;;;5008698;28;20029;-79
2022/01/17 06:23:31;;;;;;;50.50;26.02;;;-3.30;99.90;;;;;;5009412;28;20054;-81
2022/01/17 06:25:56;;;;;;;49.05;24.92;;;-3.30;99.90;;;;;;4997869;28;20386;-82
2022/01/17 06:28:22;;;;;;;46.53;24.92;;;-3.30;99.90;;;;;;5013805;28;20030;-83
2022/01/17 06:30:50;;;;;;;47.35;24.00;;;-3.20;99.90;;;;;;5016593;28;20032;-84
2022/01/17 06:33:15;;;;;;;42.75;24.67;;;-3.20;99.90;;;;;;4998138;28;20085;-82
2022/01/17 06:35:41;;;;;;;40.53;23.65;;;-3.20;99.90;;;;;;5012733;28;20030;-81
2022/01/17 06:38:07;;;;;;;41.50;22.70;;;-3.20;99.90;;;;;;4996476;28;20030;-82
2022/01/17 06:40:33;;;;;;;42.95;23.67;;;-3.20;99.90;;;;;;5012162;28;20509;-80
2022/01/17 06:43:00;;;;;;;41.50;26.80;;;-3.20;99.90;;;;;;5012118;28;20046;-80
2022/01/17 06:45:25;;;;;;;49.08;25.73;;;-3.20;99.90;;;;;;5012553;28;20049;-80
2022/01/17 06:47:51;;;;;;;64.40;29.67;;;-3.20;99.90;;;;;;5012070;28;20026;-79
2022/01/17 06:50:17;;;;;;;67.63;31.52;;;-3.10;99.90;;;;;;5012540;28;20140;-80
2022/01/17 06:52:43;;;;;;;67.20;31.65;;;-3.10;99.90;;;;;;5012556;28;20077;-79
2022/01/17 06:55:10;;;;;;;74.25;33.47;;;-3.10;99.90;;;;;;5011985;28;20070;-79
2022/01/17 06:57:36;;;;;;;82.88;34.38;;;-3.10;99.90;;;;;;5012157;28;20022;-80
2022/01/17 07:00:07;;;;;;;61.25;32.22;;;-3.00;99.90;;;;;;4996864;28;20030;-78
2022/01/17 07:02:33;;;;;;;55.10;26.52;;;-3.00;99.90;;;;;;5012076;28;20508;-78
2022/01/17 07:04:59;;;;;;;50.33;27.85;;;-3.00;99.90;;;;;;4997256;28;20026;-79
2022/01/17 07:07:24;;;;;;;53.55;27.88;;;-2.90;99.90;;;;;;4997113;28;20049;-80
2022/01/17 07:09:50;;;;;;;50.22;25.58;;;-2.80;99.90;;;;;;5012073;28;20018;-79
2022/01/17 07:12:16;;;;;;;46.97;25.30;;;-2.80;99.90;;;;;;5012000;28;20040;-80
2022/01/17 07:14:42;;;;;;;40.22;24.60;;;-2.70;99.90;;;;;;5012266;28;20030;-79
2022/01/17 07:17:11;;;;;;;45.50;23.95;;;-2.70;99.90;;;;;;5011751;28;20371;-81
2022/01/17 07:19:38;;;;;;;42.17;25.70;;;-2.70;99.90;;;;;;5011746;28;20034;-79
2022/01/17 07:22:07;;;;;;;44.58;26.65;;;-1.80;99.90;;;;;;4996944;28;20025;-79
2022/01/17 07:24:34;;;;;;;47.75;27.67;;;-1.70;99.90;;;;;;5011929;28;20037;-80
2022/01/17 07:27:00;;;;;;;43.63;23.90;;;-1.80;99.90;;;;;;4996702;28;20027;-80
2022/01/17 07:29:26;;;;;;;40.65;23.55;;;-1.90;99.90;;;;;;5011974;28;20030;-79
2022/01/17 07:31:56;;;;;;;46.97;25.38;;;-2.00;99.90;;;;;;5011634;28;20478;-81
2022/01/17 07:34:22;;;;;;;46.33;26.88;;;-2.10;99.90;;;;;;5011999;28;20022;-81
2022/01/17 07:36:48;;;;;;;42.40;24.38;;;-2.10;99.90;;;;;;4996328;28;20404;-81
2022/01/17 07:39:14;;;;;;;48.10;26.02;;;-2.10;99.90;;;;;;5001366;28;20146;-80
2022/01/17 07:41:40;;;;;;;46.55;26.35;;;-2.10;99.90;;;;;;4997989;28;20076;-80
2022/01/17 07:44:10;;;;;;;49.53;27.15;;;-2.20;99.90;;;;;;5016136;28;20026;-81
2022/01/17 07:46:47;;;;;;;50.00;28.42;;;-2.10;99.90;;;;;;5014270;28;20046;-81
2022/01/17 07:49:19;;;;;;;46.13;27.73;;;-2.10;99.90;;;;;;4998489;28;20026;-80
2022/01/17 07:51:47;;;;;;;54.97;32.30;;;-2.00;99.90;;;;;;5014344;28;20029;-81
2022/01/17 07:54:17;;;;;;;61.60;35.78;;;-1.90;99.90;;;;;;5014224;28;20022;-80
2022/01/17 07:56:44;;;;;;;62.10;33.90;;;-1.90;99.90;;;;;;5015406;28;20110;-78
2022/01/17 07:59:12;;;;;;;65.30;37.58;;;-1.80;99.90;;;;;;5015088;28;20113;-78
2022/01/17 08:01:38;;;;;;;69.88;37.50;;;-1.70;99.90;;;;;;5013972;28;20022;-80
2022/01/17 08:04:05;;;;;;;67.70;35.90;;;-1.70;99.90;;;;;;4997597;28;20540;-80
2022/01/17 08:06:32;;;;;;;55.75;31.77;;;-1.60;99.90;;;;;;5014964;28;20037;-78
2022/01/17 08:08:58;;;;;;;42.88;25.58;;;-1.50;99.90;;;;;;5014271;28;20021;-79
2022/01/17 08:11:24;;;;;;;40.33;25.13;;;-1.40;99.90;;;;;;4997432;28;20026;-80
2022/01/17 08:13:50;;;;;;;44.58;23.60;;;-1.40;99.90;;;;;;5015178;28;20022;-79
2022/01/17 08:16:16;;;;;;;47.13;25.58;;;-1.40;99.90;;;;;;4997217;28;20026;-79
2022/01/17 08:18:42;;;;;;;38.85;23.40;;;-1.40;99.90;;;;;;4997084;28;20026;-79
2022/01/17 08:21:08;;;;;;;41.00;25.70;;;-1.40;99.90;;;;;;5013755;28;20037;-81
2022/01/17 08:23:33;;;;;;;48.55;31.23;;;-1.40;99.90;;;;;;4997518;28;20022;-82
2022/01/17 08:25:59;;;;;;;48.97;29.67;;;-1.30;99.90;;;;;;5015416;28;20076;-81
2022/01/17 08:28:25;;;;;;;52.38;29.33;;;-1.30;99.90;;;;;;4997385;28;20029;-81
2022/01/17 08:30:51;;;;;;;46.92;27.25;;;-1.30;99.90;;;;;;5014392;28;20022;-83
2022/01/17 08:33:17;;;;;;;51.33;29.27;;;-1.30;99.90;;;;;;5014651;28;20405;-82
2022/01/17 08:35:42;;;;;;;48.20;27.73;;;-1.30;99.90;;;;;;4997686;28;20140;-81
2022/01/17 08:38:08;;;;;;;50.17;30.85;;;-1.30;99.90;;;;;;4997640;28;20053;-82
2022/01/17 08:40:34;;;;;;;52.75;35.83;;;-1.20;99.90;;;;;;5015869;28;20092;-83
2022/01/17 08:42:59;;;;;;;52.58;31.10;;;-1.20;99.90;;;;;;4997326;28;20550;-81
2022/01/17 08:45:26;;;;;;;49.40;27.48;;;-1.20;99.90;;;;;;4997216;28;20403;-80
2022/01/17 08:47:52;;;;;;;47.80;28.08;;;-1.10;99.90;;;;;;4996786;28;20028;-82
2022/01/17 08:50:21;;;;;;;52.58;27.60;;;-1.10;99.90;;;;;;4997517;28;20037;-81
2022/01/17 08:52:47;;;;;;;49.85;27.48;;;-1.00;99.90;;;;;;5012879;28;20049;-81
2022/01/17 08:55:14;;;;;;;51.80;31.17;;;-1.00;99.90;;;;;;5013343;28;20060;-80
2022/01/17 08:57:40;;;;;;;45.60;27.58;;;-1.00;99.90;;;;;;5013406;28;20060;-80
2022/01/17 09:00:12;;;;;;;44.22;26.92;;;-1.00;99.90;;;;;;4996758;28;20077;-82
2022/01/17 09:02:39;;;;;;;45.45;25.00;;;-1.00;99.90;;;;;;5013415;28;20018;-79
2022/01/17 09:05:05;;;;;;;46.70;26.95;;;-1.00;99.90;;;;;;4995853;28;20029;-80
2022/01/17 09:07:30;;;;;;;56.05;31.05;;;-0.90;99.90;;;;;;5012522;28;20112;-80
2022/01/17 09:09:57;;;;;;;59.15;31.52;;;-0.90;99.90;;;;;;4995996;28;20057;-80
2022/01/17 09:12:23;;;;;;;59.55;33.75;;;-0.90;99.90;;;;;;5012713;28;20496;-80
2022/01/17 09:14:49;;;;;;;53.80;30.90;;;-0.70;99.90;;;;;;5012638;28;20030;-80
2022/01/17 09:17:14;;;;;;;58.45;33.95;;;-0.70;99.90;;;;;;5013442;28;20033;-81
2022/01/17 09:19:42;;;;;;;61.03;34.67;;;-0.60;99.90;;;;;;4996313;28;20026;-82
2022/01/17 09:22:09;;;;;;;64.63;36.63;;;-0.60;99.90;;;;;;5013255;28;20418;-83
2022/01/17 09:24:37;;;;;;;58.20;34.92;;;-0.50;99.90;;;;;;5012779;28;20022;-79
2022/01/17 09:27:04;;;;;;;54.80;32.20;;;-0.50;99.90;;;;;;4995618;28;20429;-81
2022/01/17 09:29:30;;;;;;;58.22;32.22;;;-0.40;99.90;;;;;;5013220;28;20026;-82
2022/01/17 09:31:56;;;;;;;59.03;36.63;;;-0.40;99.90;;;;;;5013241;28;20044;-80
2022/01/17 09:34:22;;;;;;;49.00;31.23;;;-0.40;99.90;;;;;;4995698;28;20030;-80
2022/01/17 09:36:48;;;;;;;46.03;27.75;;;-0.30;99.90;;;;;;5011414;28;20052;-80
2022/01/17 09:39:14;;;;;;;53.30;33.75;;;-0.20;99.90;;;;;;4995513;28;20085;-81
2022/01/17 09:41:40;;;;;;;52.38;30.27;;;-0.20;99.90;;;;;;4995739;28;20022;-78
2022/01/17 09:44:09;;;;;;;49.13;30.80;;;-0.10;99.90;;;;;;4995614;28;20100;-80
2022/01/17 09:46:45;;;;;;;44.63;28.95;;;-0.10;99.90;;;;;;5012986;28;20025;-79
2022/01/17 09:49:15;;;;;;;55.33;32.50;;;-0.10;99.90;;;;;;5011879;28;20038;-80
2022/01/17 09:52:05;;;;;;;49.08;28.88;;;0.00;99.90;;;;;;4995328;28;20022;-78
2022/01/17 09:54:35;;;;;;;52.35;28.92;;;0.00;99.90;;;;;;4997484;28;20121;-83
2022/01/17 09:57:06;;;;;;;52.33;31.05;;;0.00;99.90;;;;;;5013576;28;20037;-82
2022/01/17 09:59:34;;;;;;;55.65;33.47;;;0.10;99.90;;;;;;5014328;28;20381;-82
2022/01/17 10:02:00;;;;;;;83.72;52.75;;;0.10;99.90;;;;;;5013417;28;20113;-81
2022/01/17 10:04:26;;;;;;;56.60;34.65;;;0.10;99.90;;;;;;5014688;28;20104;-80
2022/01/17 10:06:57;;;;;;;43.30;27.95;;;0.10;99.90;;;;;;5017711;28;20065;-80
2022/01/17 10:09:25;;;;;;;48.45;26.30;;;0.20;99.90;;;;;;5017009;28;20076;-83
2022/01/17 10:12:03;;;;;;;43.35;25.33;;;0.30;99.90;;;;;;5016845;28;20022;-81
2022/01/17 10:14:36;;;;;;;38.13;22.55;;;0.40;99.90;;;;;;5000242;28;20026;-81
2022/01/17 10:17:06;;;;;;;77.43;44.97;;;1.00;99.90;;;;;;5016287;28;20464;-81
2022/01/17 10:19:32;;;;;;;66.18;41.90;;;1.50;99.90;;;;;;5000875;28;20042;-81
2022/01/17 10:22:00;;;;;;;99.05;57.60;;;2.40;99.90;;;;;;5002500;28;20018;-84
2022/01/17 10:24:50;;;;;;;81.45;48.15;;;2.90;99.90;;;;;;5004091;28;20026;-84
2022/01/17 10:35:20;;;;;;;45.13;28.38;;;3.60;99.90;;;;;;5018665;28;20100;-83
2022/01/17 10:37:59;;;;;;;40.70;26.27;;;3.60;99.90;;;;;;5001050;28;20482;-84
2022/01/17 10:40:31;;;;;;;37.45;23.77;;;3.40;99.90;;;;;;4999594;28;20098;-82
2022/01/17 10:42:58;;;;;;;40.55;23.13;;;3.40;99.90;;;;;;5017939;28;20105;-81
2022/01/17 10:45:33;;;;;;;61.53;21.33;;;3.60;99.90;;;;;;5000004;28;20021;-82
2022/01/17 10:48:00;;;;;;;43.35;26.08;;;3.70;99.90;;;;;;5000377;28;20029;-80
2022/01/17 10:50:27;;;;;;;33.20;20.35;;;4.00;99.90;;;;;;5015803;28;20500;-77
2022/01/17 10:52:58;;;;;;;22.27;15.15;;;3.90;99.90;;;;;;5015507;28;20081;-78
2022/01/17 10:55:32;;;;;;;24.58;15.20;;;3.60;99.90;;;;;;5014684;28;20105;-78
2022/01/17 10:58:04;;;;;;;20.25;11.40;;;3.40;99.90;;;;;;5015819;28;20022;-79
2022/01/17 11:00:33;;;;;;;12.32;5.60;;;3.30;99.90;;;;;;5014329;28;20037;-79
2022/01/17 11:03:05;;;;;;;9.77;6.28;;;3.40;99.90;;;;;;5014384;28;20424;-79
2022/01/17 11:05:32;;;;;;;9.80;5.55;;;3.60;99.90;;;;;;5014710;28;20037;-80
2022/01/17 11:08:01;;;;;;;13.32;7.32;;;3.70;99.90;;;;;;5014535;28;20048;-80
2022/01/17 11:10:34;;;;;;;20.65;13.45;;;3.90;99.90;;;;;;5015041;28;20113;-81
2022/01/17 11:13:05;;;;;;;8.57;5.05;;;4.40;99.90;;;;;;5014983;28;20022;-79
2022/01/17 11:15:33;;;;;;;10.35;5.63;;;4.90;99.90;;;;;;5013689;28;20037;-83
2022/01/17 11:18:04;;;;;;;7.90;4.40;;;5.40;99.90;;;;;;5014710;28;20037;-80
2022/01/17 11:20:32;;;;;;;7.38;3.78;;;5.80;99.90;;;;;;5013935;28;20038;-80
2022/01/17 11:23:00;;;;;;;5.82;3.53;;;6.00;96.10;;;;;;5014090;28;20025;-79
2022/01/17 11:25:28;;;;;;;5.07;3.28;;;6.00;95.20;;;;;;5013660;28;20025;-80
2022/01/17 11:27:55;;;;;;;7.38;3.47;;;6.10;94.20;;;;;;5014082;28;20075;-78
2022/01/17 11:30:21;;;;;;;4.60;2.85;;;6.10;94.40;;;;;;5013763;28;20033;-79
2022/01/17 11:32:49;;;;;;;7.40;3.03;;;6.00;92.60;;;;;;5014527;28;20030;-78
2022/01/17 11:35:17;;;;;;;3.85;2.47;;;6.00;92.00;;;;;;5013650;28;20543;-78
2022/01/17 11:37:49;;;;;;;6.72;2.70;;;5.90;92.00;;;;;;4996581;28;20030;-79
2022/01/17 11:40:20;;;;;;;32.00;11.30;;;5.70;91.90;;;;;;5013431;28;20129;-83
2022/01/17 11:42:49;;;;;;;17.67;8.55;;;5.70;91.30;;;;;;5015224;28;20100;-83
2022/01/17 11:45:21;;;;;;;8.13;4.38;;;5.70;91.70;;;;;;4998588;28;20026;-82
2022/01/17 11:47:52;;;;;;;22.33;8.63;;;5.90;91.00;;;;;;4998569;28;20032;-82
2022/01/17 11:50:27;;;;;;;14.60;5.90;;;6.00;90.90;;;;;;4998214;28;20025;-80
2022/01/17 11:53:00;;;;;;;10.17;5.80;;;6.20;90.60;;;;;;5015590;28;20725;-82
2022/01/17 11:55:38;;;;;;;7.38;3.97;;;6.30;89.90;;;;;;5014299;28;20496;-80
2022/01/17 11:58:27;;;;;;;9.27;5.05;;;6.60;88.90;;;;;;4997360;28;20077;-80
2022/01/17 12:01:01;;;;;;;1.85;1.20;;;6.70;88.40;;;;;;4997627;28;20034;-81
2022/01/17 12:03:54;;;;;;;1.27;1.05;;;6.90;84.90;;;;;;4997685;28;20063;-79
2022/01/17 12:06:28;;;;;;;4.40;1.38;;;7.10;81.90;;;;;;5013680;28;20029;-84
2022/01/17 12:09:17;;;;;;;1.55;1.02;;;7.20;80.60;;;;;;5013676;28;20022;-80
2022/01/17 12:11:43;;;;;;;1.67;1.00;;;7.40;79.30;;;;;;5013900;28;20022;-84
2022/01/17 12:14:22;;;;;;;2.85;1.60;;;7.50;79.30;;;;;;5014405;28;20034;-78
2022/01/17 12:16:48;;;;;;;2.92;1.65;;;7.60;78.60;;;;;;4997148;28;20481;-78
2022/01/17 12:19:14;;;;;;;4.53;1.23;;;7.70;79.00;;;;;;5013878;28;20034;-79
2022/01/17 12:21:53;;;;;;;4.70;2.38;;;7.80;79.30;;;;;;5012590;28;20091;-80
2022/01/17 12:24:30;;;;;;;1.13;0.50;;;7.90;77.90;;;;;;5012183;28;20036;-79
2022/01/17 12:27:01;;;;;;;6.45;0.47;;;8.30;72.70;;;;;;4995661;28;20079;-79
2022/01/17 12:29:52;;;;;;;3.30;1.38;;;8.80;68.20;;;;;;4995851;28;20057;-81
2022/01/17 12:32:23;;;;;;;1.17;0.85;;;9.10;67.10;;;;;;5012170;28;20026;-81
2022/01/17 12:34:54;;;;;;;0.93;0.55;;;9.30;65.80;;;;;;5013037;28;20013;-80
2022/01/17 12:37:41;;;;;;;0.57;0.57;;;9.50;62.20;;;;;;4995555;28;20033;-80
2022/01/17 12:40:13;;;;;;;0.25;0.25;;;9.60;61.30;;;;;;4994976;28;20054;-79
2022/01/17 12:42:51;;;;;;;2.45;0.40;;;9.50;61.40;;;;;;4995516;28;20022;-78
2022/01/17 12:45:25;;;;;;;1.70;0.95;;;9.30;61.70;;;;;;5013003;28;20409;-78
2022/01/17 12:47:52;;;;;;;5.25;3.33;;;9.30;62.30;;;;;;5011691;28;20030;-80
2022/01/17 12:50:19;;;;;;;18.98;8.48;;;9.10;63.30;;;;;;4995372;28;20026;-79
2022/01/17 12:52:46;;;;;;;4.82;2.72;;;9.00;65.10;;;;;;5011926;28;20099;-80
2022/01/17 12:55:14;;;;;;;15.10;3.83;;;8.80;64.90;;;;;;5013330;28;20034;-81
2022/01/17 12:57:44;;;;;;;4.07;3.28;;;8.60;67.40;;;;;;4995712;28;20029;-78